createdAt,value
2023-01-15T00:00:51.063Z,20.80
2023-01-15T00:03:18.506Z,20.80
2023-01-15T00:05:45.451Z,20.80
2023-01-15T00:08:12.319Z,20.80
2023-01-15T00:10:39.213Z,20.80
2023-01-15T00:13:06.117Z,20.80
2023-01-15T00:15:33.051Z,20.80
2023-01-15T00:18:00.003Z,20.80
2023-01-15T00:20:26.918Z,20.80
2023-01-15T00:22:53.813Z,20.80
2023-01-15T00:25:40.772Z,20.80
2023-01-15T00:28:07.664Z,20.80
2023-01-15T00:30:34.544Z,20.80
2023-01-15T00:33:01.418Z,20.80
2023-01-15T00:35:28.318Z,20.80
2023-01-15T00:37:55.214Z,20.70
2023-01-15T00:40:22.932Z,20.70
2023-01-15T00:42:54.205Z,20.80
2023-01-15T00:45:21.735Z,20.80
2023-01-15T00:47:50.660Z,20.70
2023-01-15T00:50:17.643Z,20.70
2023-01-15T00:52:44.560Z,20.70
2023-01-15T00:55:11.439Z,20.70
2023-01-15T00:57:38.373Z,20.70
2023-01-15T01:00:05.548Z,20.70
2023-01-15T01:02:32.609Z,20.70
2023-01-15T01:04:59.532Z,20.70
2023-01-15T01:07:26.535Z,20.70
2023-01-15T01:09:53.520Z,20.70
2023-01-15T01:12:21.477Z,20.70
2023-01-15T01:14:48.386Z,20.70
2023-01-15T01:17:15.244Z,20.70
2023-01-15T01:19:42.138Z,20.70
2023-01-15T01:22:09.089Z,20.70
2023-01-15T01:24:36.091Z,20.70
2023-01-15T01:27:02.990Z,20.70
2023-01-15T01:29:29.877Z,20.70
2023-01-15T01:31:56.868Z,20.70
2023-01-15T01:34:23.772Z,20.70
2023-01-15T01:36:50.708Z,20.70
2023-01-15T01:39:18.586Z,20.70
2023-01-15T01:41:46.379Z,20.70
2023-01-15T01:44:33.167Z,20.70
2023-01-15T01:47:01.439Z,20.70
2023-01-15T01:49:28.321Z,20.70
2023-01-15T01:51:57.775Z,20.60
2023-01-15T01:54:25.278Z,20.70
2023-01-15T01:56:52.578Z,20.70
2023-01-15T01:59:20.687Z,20.60
2023-01-15T02:01:48.578Z,20.60
2023-01-15T02:04:16.093Z,20.60
2023-01-15T02:06:43.630Z,20.60
2023-01-15T02:09:10.904Z,20.60
2023-01-15T02:11:37.859Z,20.70
2023-01-15T02:14:10.329Z,20.60
2023-01-15T02:16:40.545Z,20.70
2023-01-15T02:19:27.364Z,20.60
2023-01-15T02:22:04.622Z,20.70
2023-01-15T02:24:39.743Z,20.70
2023-01-15T02:27:09.131Z,20.70
2023-01-15T02:29:55.953Z,20.70
2023-01-15T02:32:32.099Z,20.70
2023-01-15T02:35:01.463Z,20.70
2023-01-15T02:37:30.388Z,20.70
2023-01-15T02:39:59.641Z,20.60
2023-01-15T02:42:27.690Z,20.60
2023-01-15T02:44:55.617Z,20.60
2023-01-15T02:47:25.258Z,20.60
2023-01-15T02:49:53.682Z,20.60
2023-01-15T02:52:24.350Z,20.60
2023-01-15T02:54:54.982Z,20.60
2023-01-15T02:57:22.282Z,20.60
2023-01-15T02:59:50.326Z,20.60
2023-01-15T03:02:20.797Z,20.60
2023-01-15T03:04:50.414Z,20.60
2023-01-15T03:07:31.194Z,20.60
2023-01-15T03:09:58.378Z,20.60
2023-01-15T03:12:34.642Z,20.60
2023-01-15T03:15:07.147Z,20.60
2023-01-15T03:17:39.430Z,20.60
2023-01-15T03:20:13.469Z,20.60
2023-01-15T03:22:44.329Z,20.60
2023-01-15T03:25:19.309Z,20.60
2023-01-15T03:27:46.197Z,20.60
2023-01-15T03:30:14.970Z,20.60
2023-01-15T03:32:42.004Z,20.50
2023-01-15T03:35:28.757Z,20.60
2023-01-15T03:37:55.757Z,20.60
2023-01-15T03:40:23.028Z,20.60
2023-01-15T03:43:17.306Z,20.50
2023-01-15T03:45:45.860Z,20.50
2023-01-15T03:48:20.360Z,20.50
2023-01-15T03:50:53.276Z,20.50
2023-01-15T03:53:26.635Z,20.50
2023-01-15T03:55:59.938Z,20.50
2023-01-15T03:58:29.896Z,20.50
2023-01-15T04:00:59.986Z,20.50
2023-01-15T04:03:28.001Z,20.50
2023-01-15T04:05:56.615Z,20.50
2023-01-15T04:08:24.533Z,20.50
2023-01-15T04:10:52.988Z,20.50
2023-01-15T04:13:20.171Z,20.50
2023-01-15T04:15:47.109Z,20.50
2023-01-15T04:18:14.143Z,20.50
2023-01-15T04:20:41.048Z,20.50
2023-01-15T04:23:08.489Z,20.50
2023-01-15T04:25:35.452Z,20.50
2023-01-15T04:28:02.375Z,20.50
2023-01-15T04:30:29.284Z,20.50
2023-01-15T04:32:56.239Z,20.50
2023-01-15T04:35:23.197Z,20.50
2023-01-15T04:37:50.213Z,20.60
2023-01-15T04:40:37.049Z,20.50
2023-01-15T04:43:23.780Z,20.50
2023-01-15T04:45:50.730Z,20.60
2023-01-15T04:48:17.644Z,20.60
2023-01-15T04:50:44.555Z,20.50
2023-01-15T04:53:11.490Z,20.50
2023-01-15T04:55:38.450Z,20.50
2023-01-15T04:58:05.391Z,20.50
2023-01-15T05:00:32.326Z,20.50
2023-01-15T05:02:59.288Z,20.50
2023-01-15T05:05:26.179Z,20.50
2023-01-15T05:07:53.886Z,20.50
2023-01-15T05:10:20.797Z,20.50
2023-01-15T05:12:47.743Z,20.50
2023-01-15T05:15:14.671Z,20.50
2023-01-15T05:17:41.578Z,20.50
2023-01-15T05:20:08.783Z,20.50
2023-01-15T05:22:35.769Z,20.50
2023-01-15T05:25:02.802Z,20.50
2023-01-15T05:27:30.965Z,20.50
2023-01-15T05:29:57.855Z,20.40
2023-01-15T05:32:24.758Z,20.50
2023-01-15T05:34:51.655Z,20.50
2023-01-15T05:37:18.526Z,20.50
2023-01-15T05:39:45.476Z,20.50
2023-01-15T05:42:12.390Z,20.40
2023-01-15T05:44:39.372Z,20.40
2023-01-15T05:47:07.914Z,20.40
2023-01-15T05:49:35.018Z,20.40
2023-01-15T05:52:02.460Z,20.40
2023-01-15T05:54:31.038Z,20.40
2023-01-15T05:56:57.960Z,20.40
2023-01-15T05:59:25.807Z,20.40
2023-01-15T06:01:52.945Z,20.40
2023-01-15T06:04:21.547Z,20.40
2023-01-15T06:06:49.194Z,20.50
2023-01-15T06:09:16.107Z,20.50
2023-01-15T06:11:43.033Z,20.50
2023-01-15T06:14:10.745Z,20.50
2023-01-15T06:16:39.179Z,20.50
2023-01-15T06:19:08.280Z,20.50
2023-01-15T06:21:35.544Z,20.60
2023-01-15T06:24:02.671Z,20.60
2023-01-15T06:26:29.605Z,20.60
2023-01-15T06:28:56.584Z,20.60
2023-01-15T06:31:24.039Z,20.60
2023-01-15T06:33:51.085Z,20.60
2023-01-15T06:36:21.657Z,20.60
2023-01-15T06:38:48.981Z,20.70
2023-01-15T06:41:41.185Z,20.70
2023-01-15T06:44:31.335Z,20.70
2023-01-15T06:47:18.214Z,20.70
2023-01-15T06:49:45.095Z,20.80
2023-01-15T06:52:12.155Z,20.80
2023-01-15T06:54:39.333Z,20.90
2023-01-15T06:57:06.540Z,20.90
2023-01-15T06:59:33.558Z,20.90
2023-01-15T07:02:01.007Z,20.90
2023-01-15T07:04:27.875Z,20.90
2023-01-15T07:06:54.741Z,21.00
2023-01-15T07:09:21.695Z,21.00
2023-01-15T07:11:51.678Z,21.00
2023-01-15T07:14:19.626Z,21.10
2023-01-15T07:16:46.753Z,21.10
2023-01-15T07:19:13.888Z,21.10
2023-01-15T07:21:40.876Z,21.20
2023-01-15T07:24:08.131Z,21.20
2023-01-15T07:26:35.404Z,21.20
2023-01-15T07:29:02.385Z,21.20
2023-01-15T07:31:29.364Z,21.30
2023-01-15T07:33:57.261Z,21.30
2023-01-15T07:36:24.597Z,21.30
2023-01-15T07:38:51.654Z,21.30
2023-01-15T07:41:38.442Z,21.40
2023-01-15T07:44:25.318Z,21.40
2023-01-15T07:47:12.084Z,21.50
2023-01-15T07:49:45.639Z,21.50
2023-01-15T07:52:13.686Z,21.50
2023-01-15T07:54:40.705Z,21.50
2023-01-15T07:57:07.946Z,21.60
2023-01-15T07:59:34.901Z,21.60
2023-01-15T08:02:01.999Z,21.60
2023-01-15T08:04:28.992Z,21.70
2023-01-15T08:06:55.876Z,21.70
2023-01-15T08:09:22.797Z,21.70
2023-01-15T08:12:09.586Z,21.80
2023-01-15T08:14:56.335Z,21.80
2023-01-15T08:17:23.283Z,21.80
2023-01-15T08:19:50.194Z,21.90
2023-01-15T08:22:17.132Z,21.90
2023-01-15T08:24:44.080Z,21.90
2023-01-15T08:27:10.963Z,21.90
2023-01-15T08:29:37.970Z,22.00
2023-01-15T08:32:05.002Z,22.00
2023-01-15T08:34:31.955Z,22.00
2023-01-15T08:37:00.453Z,22.00
2023-01-15T08:39:28.116Z,22.10
2023-01-15T08:41:55.362Z,22.10
2023-01-15T08:44:23.650Z,22.20
2023-01-15T08:46:51.465Z,22.20
2023-01-15T08:49:18.950Z,22.20
2023-01-15T08:51:46.574Z,22.20
2023-01-15T08:54:13.625Z,22.30
2023-01-15T08:56:40.539Z,22.40
2023-01-15T08:59:08.300Z,22.30
2023-01-15T09:01:35.639Z,22.40
2023-01-15T09:04:03.183Z,22.40
2023-01-15T09:06:30.076Z,22.50
2023-01-15T09:08:57.022Z,22.50
2023-01-15T09:11:23.977Z,22.50
2023-01-15T09:13:51.828Z,22.50
2023-01-15T09:16:18.828Z,22.60
2023-01-15T09:18:46.084Z,22.60
2023-01-15T09:21:13.029Z,22.60
2023-01-15T09:23:40.053Z,22.70
2023-01-15T09:26:07.443Z,22.70
2023-01-15T09:28:35.074Z,22.70
2023-01-15T09:31:02.085Z,22.70
2023-01-15T09:33:29.035Z,22.80
2023-01-15T09:35:55.973Z,22.80
2023-01-15T09:38:22.878Z,22.80
2023-01-15T09:40:52.348Z,22.80
2023-01-15T09:43:50.078Z,22.90
2023-01-15T09:46:22.408Z,22.90
2023-01-15T09:49:09.157Z,23.00
2023-01-15T09:51:44.238Z,22.90
2023-01-15T09:54:25.356Z,23.00
2023-01-15T09:56:53.854Z,23.00
2023-01-15T09:59:26.761Z,23.00
2023-01-15T10:01:53.981Z,23.00
2023-01-15T10:04:34.478Z,23.00
2023-01-15T10:07:08.194Z,23.00
2023-01-15T10:09:37.797Z,23.10
2023-01-15T10:12:29.261Z,23.10
2023-01-15T10:15:16.033Z,23.10
2023-01-15T10:17:44.479Z,23.10
2023-01-15T10:20:31.220Z,23.20
2023-01-15T10:23:06.086Z,23.10
2023-01-15T10:25:40.051Z,23.10
2023-01-15T10:28:13.701Z,23.20
2023-01-15T10:30:43.520Z,23.20
2023-01-15T10:33:25.962Z,23.20
2023-01-15T10:36:02.715Z,23.20
2023-01-15T10:38:33.798Z,23.20
2023-01-15T10:41:14.206Z,23.20
2023-01-15T10:43:44.855Z,23.20
2023-01-15T10:46:19.376Z,23.30
2023-01-15T10:48:48.544Z,23.30
2023-01-15T10:51:28.176Z,23.30
2023-01-15T10:53:58.610Z,23.30
2023-01-15T10:56:44.152Z,23.30
2023-01-15T10:59:30.942Z,23.30
2023-01-15T11:01:59.670Z,23.30
2023-01-15T11:04:29.313Z,23.30
2023-01-15T11:07:01.263Z,23.40
2023-01-15T11:09:32.491Z,23.40
2023-01-15T11:12:26.714Z,23.40
2023-01-15T11:15:13.531Z,23.40
2023-01-15T11:18:06.634Z,23.40
2023-01-15T11:20:42.975Z,23.40
2023-01-15T11:23:11.403Z,23.40
2023-01-15T11:25:39.794Z,23.40
2023-01-15T11:28:07.253Z,23.50
2023-01-15T11:30:37.569Z,23.40
2023-01-15T11:33:08.263Z,23.50
2023-01-15T11:35:35.157Z,23.50
2023-01-15T11:38:06.749Z,23.50
2023-01-15T11:40:33.727Z,23.50
2023-01-15T11:43:20.633Z,23.50
2023-01-15T11:46:08.576Z,23.50
2023-01-15T11:49:05.538Z,23.50
2023-01-15T11:51:41.648Z,23.50
2023-01-15T11:54:10.273Z,23.50
2023-01-15T11:56:40.988Z,23.60
2023-01-15T11:59:10.693Z,23.60
2023-01-15T12:01:39.160Z,23.60
2023-01-15T12:04:24.281Z,23.60
2023-01-15T12:06:51.233Z,23.60
2023-01-15T12:09:33.795Z,23.60
2023-01-15T12:12:20.632Z,23.60
2023-01-15T12:15:07.426Z,23.60
2023-01-15T12:17:54.150Z,23.60
2023-01-15T12:20:29.935Z,23.60
2023-01-15T12:23:16.692Z,23.60
2023-01-15T12:25:53.302Z,23.60
2023-01-15T12:28:25.564Z,23.60
2023-01-15T12:30:58.589Z,23.60
2023-01-15T12:33:45.379Z,23.60
2023-01-15T12:36:29.269Z,23.60
2023-01-15T12:39:01.125Z,23.60
2023-01-15T12:41:52.829Z,23.60
2023-01-15T12:44:47.291Z,23.60
2023-01-15T12:47:16.885Z,23.60
2023-01-15T12:49:46.544Z,23.60
2023-01-15T12:52:20.921Z,23.60
2023-01-15T12:54:51.858Z,23.50
2023-01-15T12:57:25.243Z,23.50
2023-01-15T13:00:01.673Z,23.50
2023-01-15T13:02:35.157Z,23.50
2023-01-15T13:05:22.411Z,23.50
2023-01-15T13:08:09.402Z,23.50
2023-01-15T13:10:38.994Z,23.50
2023-01-15T13:13:15.305Z,23.40
2023-01-15T13:15:49.759Z,23.40
2023-01-15T13:18:36.494Z,23.40
2023-01-15T13:21:09.633Z,23.40
2023-01-15T13:23:56.690Z,23.40
2023-01-15T13:26:34.859Z,23.40
2023-01-15T13:29:10.215Z,23.40
2023-01-15T13:31:51.891Z,23.30
2023-01-15T13:34:26.392Z,23.30
2023-01-15T13:36:55.203Z,23.30
2023-01-15T13:39:28.038Z,23.30
2023-01-15T13:42:15.039Z,23.30
2023-01-15T13:44:46.999Z,23.20
2023-01-15T13:47:19.214Z,23.20
2023-01-15T13:49:52.271Z,23.20
2023-01-15T13:52:31.390Z,23.20
2023-01-15T13:55:00.397Z,23.20
2023-01-15T13:57:36.556Z,23.10
2023-01-15T14:00:05.048Z,23.10
2023-01-15T14:02:34.703Z,23.10
2023-01-15T14:05:21.436Z,23.10
2023-01-15T14:07:48.317Z,23.00
2023-01-15T14:10:24.795Z,23.10
2023-01-15T14:13:11.585Z,23.00
2023-01-15T14:15:58.021Z,23.00
2023-01-15T14:18:44.748Z,23.00
2023-01-15T14:21:24.945Z,22.90
2023-01-15T14:24:01.403Z,22.90
2023-01-15T14:26:47.468Z,22.90
2023-01-15T14:29:33.544Z,22.90
2023-01-15T14:32:07.583Z,22.90
2023-01-15T14:34:35.643Z,22.80
2023-01-15T14:37:08.149Z,22.80
2023-01-15T14:39:42.025Z,22.80
2023-01-15T14:42:35.837Z,22.80
2023-01-15T14:45:08.221Z,22.80
2023-01-15T14:47:36.939Z,22.70
2023-01-15T14:50:22.312Z,22.70
2023-01-15T14:52:49.722Z,22.70
2023-01-15T14:55:18.084Z,22.70
2023-01-15T14:57:56.140Z,22.70
2023-01-15T15:00:24.468Z,22.60
2023-01-15T15:02:51.842Z,22.60
2023-01-15T15:05:20.992Z,22.60
2023-01-15T15:07:52.852Z,22.50
2023-01-15T15:10:25.499Z,22.50
2023-01-15T15:13:05.477Z,22.60
2023-01-15T15:15:39.065Z,22.60
2023-01-15T15:18:15.905Z,22.50
2023-01-15T15:20:48.192Z,22.50
2023-01-15T15:23:34.901Z,22.50
2023-01-15T15:26:03.232Z,22.40
2023-01-15T15:28:30.488Z,22.40
2023-01-15T15:31:01.749Z,22.40
2023-01-15T15:33:36.371Z,22.30
2023-01-15T15:36:03.592Z,22.30
2023-01-15T15:38:30.502Z,22.30
2023-01-15T15:40:59.802Z,22.30
2023-01-15T15:43:51.778Z,22.20
2023-01-15T15:46:43.225Z,22.20
2023-01-15T15:49:10.255Z,22.20
2023-01-15T15:51:40.121Z,22.20
2023-01-15T15:54:18.627Z,22.10
2023-01-15T15:56:52.209Z,22.10
2023-01-15T15:59:36.892Z,22.10
2023-01-15T16:02:18.816Z,22.10
2023-01-15T16:04:47.487Z,22.00
2023-01-15T16:07:21.028Z,22.00
2023-01-15T16:09:49.731Z,22.00
2023-01-15T16:12:16.919Z,22.00
2023-01-15T16:14:43.879Z,22.00
2023-01-15T16:17:13.053Z,21.90
2023-01-15T16:19:40.168Z,21.90
2023-01-15T16:22:07.707Z,21.90
2023-01-15T16:24:34.685Z,21.90
2023-01-15T16:27:08.099Z,21.80
2023-01-15T16:29:35.484Z,21.80
2023-01-15T16:32:09.197Z,21.80
2023-01-15T16:34:36.177Z,21.80
2023-01-15T16:37:03.233Z,21.80
2023-01-15T16:39:39.208Z,21.80
2023-01-15T16:42:22.831Z,21.70
2023-01-15T16:44:55.171Z,21.80
2023-01-15T16:47:24.015Z,21.70
2023-01-15T16:49:50.928Z,21.70
2023-01-15T16:52:37.665Z,21.70
2023-01-15T16:55:05.000Z,21.70
2023-01-15T16:57:33.713Z,21.70
2023-01-15T17:00:02.376Z,21.70
2023-01-15T17:02:34.862Z,21.70
2023-01-15T17:05:01.893Z,21.70
2023-01-15T17:07:34.687Z,21.70
2023-01-15T17:10:02.175Z,21.60
2023-01-15T17:12:31.143Z,21.60
2023-01-15T17:15:18.390Z,21.60
2023-01-15T17:17:49.522Z,21.60
2023-01-15T17:20:17.042Z,21.60
2023-01-15T17:22:47.913Z,21.60
2023-01-15T17:25:22.514Z,21.60
2023-01-15T17:27:49.439Z,21.60
2023-01-15T17:30:16.711Z,21.50
2023-01-15T17:32:43.673Z,21.50
2023-01-15T17:35:26.270Z,21.50
2023-01-15T17:37:53.505Z,21.50
2023-01-15T17:40:20.886Z,21.50
2023-01-15T17:42:47.777Z,21.50
2023-01-15T17:45:19.451Z,21.50
2023-01-15T17:47:46.392Z,21.50
2023-01-15T17:50:14.698Z,21.50
2023-01-15T17:52:45.546Z,21.50
2023-01-15T17:55:32.794Z,21.50
2023-01-15T17:58:19.791Z,21.50
2023-01-15T18:01:07.828Z,21.50
2023-01-15T18:03:55.227Z,21.50
2023-01-15T18:06:22.401Z,21.50
2023-01-15T18:08:52.722Z,21.50
2023-01-15T18:11:19.601Z,21.50
2023-01-15T18:13:49.568Z,21.50
2023-01-15T18:16:17.472Z,21.50
2023-01-15T18:18:44.570Z,21.50
2023-01-15T18:21:11.477Z,21.50
2023-01-15T18:23:39.755Z,21.50
2023-01-15T18:26:07.469Z,21.40
2023-01-15T18:28:35.252Z,21.40
2023-01-15T18:31:03.134Z,21.40
2023-01-15T18:33:30.091Z,21.40
2023-01-15T18:36:04.676Z,21.40
2023-01-15T18:38:31.759Z,21.40
2023-01-15T18:41:05.327Z,21.40
2023-01-15T18:43:52.088Z,21.40
2023-01-15T18:46:38.931Z,21.40
2023-01-15T18:49:05.882Z,21.40
2023-01-15T18:51:32.833Z,21.40
2023-01-15T18:53:59.750Z,21.40
2023-01-15T18:56:39.401Z,21.40
2023-01-15T18:59:10.262Z,21.30
2023-01-15T19:01:37.582Z,21.30
2023-01-15T19:04:06.850Z,21.30
2023-01-15T19:06:34.344Z,21.30
2023-01-15T19:09:01.671Z,21.40
2023-01-15T19:11:29.258Z,21.30
2023-01-15T19:14:16.253Z,21.30
2023-01-15T19:17:02.992Z,21.30
2023-01-15T19:19:30.286Z,21.30
2023-01-15T19:22:17.176Z,21.30
2023-01-15T19:24:44.204Z,21.30
2023-01-15T19:27:11.281Z,21.30
2023-01-15T19:29:38.228Z,21.30
2023-01-15T19:32:05.287Z,21.30
2023-01-15T19:34:34.095Z,21.30
2023-01-15T19:37:02.725Z,21.30
2023-01-15T19:39:30.009Z,21.30
2023-01-15T19:42:17.423Z,21.30
2023-01-15T19:45:04.313Z,21.30
2023-01-15T19:47:55.003Z,21.30
2023-01-15T19:50:24.681Z,21.30
2023-01-15T19:52:53.770Z,21.20
2023-01-15T19:55:21.547Z,21.20
2023-01-15T19:57:49.471Z,21.20
2023-01-15T20:00:18.402Z,21.20
2023-01-15T20:02:46.009Z,21.20
2023-01-15T20:05:13.939Z,21.20
2023-01-15T20:07:41.516Z,21.30
2023-01-15T20:10:10.032Z,21.30
2023-01-15T20:12:56.813Z,21.20
2023-01-15T20:15:24.226Z,21.20
2023-01-15T20:17:51.194Z,21.20
2023-01-15T20:20:18.173Z,21.20
2023-01-15T20:22:45.191Z,21.20
2023-01-15T20:25:15.295Z,21.20
2023-01-15T20:27:42.300Z,21.20
2023-01-15T20:30:11.142Z,21.20
2023-01-15T20:32:39.115Z,21.20
2023-01-15T20:35:07.418Z,21.30
2023-01-15T20:37:34.359Z,21.30
2023-01-15T20:40:04.215Z,21.30
2023-01-15T20:42:51.066Z,21.20
2023-01-15T20:45:18.005Z,21.20
2023-01-15T20:48:04.799Z,21.20
2023-01-15T20:50:36.346Z,21.20
2023-01-15T20:53:04.265Z,21.20
2023-01-15T20:55:45.688Z,21.20
2023-01-15T20:58:21.621Z,21.20
2023-01-15T21:00:48.861Z,21.20
2023-01-15T21:03:15.784Z,21.20
2023-01-15T21:05:42.657Z,21.20
2023-01-15T21:08:09.586Z,21.20
2023-01-15T21:10:36.485Z,21.20
2023-01-15T21:13:03.442Z,21.20
2023-01-15T21:15:30.354Z,21.20
2023-01-15T21:17:57.295Z,21.20
2023-01-15T21:20:24.232Z,21.20
2023-01-15T21:22:51.160Z,21.20
2023-01-15T21:25:18.048Z,21.20
2023-01-15T21:27:44.945Z,21.20
2023-01-15T21:30:12.109Z,21.10
2023-01-15T21:32:39.051Z,21.10
2023-01-15T21:35:06.153Z,21.10
2023-01-15T21:37:33.056Z,21.10
2023-01-15T21:39:59.952Z,21.10
2023-01-15T21:42:46.719Z,21.10
2023-01-15T21:45:13.624Z,21.10
2023-01-15T21:47:41.689Z,21.10
2023-01-15T21:50:09.388Z,21.10
2023-01-15T21:52:36.276Z,21.10
2023-01-15T21:55:03.246Z,21.10
2023-01-15T21:57:30.395Z,21.10
2023-01-15T21:59:57.331Z,21.10
2023-01-15T22:02:24.482Z,21.10
2023-01-15T22:04:51.435Z,21.10
2023-01-15T22:07:18.780Z,21.10
2023-01-15T22:09:45.843Z,21.10
2023-01-15T22:12:13.627Z,21.10
2023-01-15T22:14:40.512Z,21.10
2023-01-15T22:17:07.708Z,21.10
2023-01-15T22:19:34.658Z,21.10
2023-01-15T22:22:02.985Z,21.00
2023-01-15T22:24:32.205Z,21.10
2023-01-15T22:26:59.663Z,21.10
2023-01-15T22:29:28.025Z,21.10
2023-01-15T22:31:55.248Z,21.10
2023-01-15T22:34:22.836Z,21.00
2023-01-15T22:36:50.437Z,21.00
2023-01-15T22:39:17.528Z,21.00
2023-01-15T22:42:04.803Z,21.10
2023-01-15T22:44:32.244Z,21.10
2023-01-15T22:46:59.309Z,21.00
2023-01-15T22:49:26.282Z,21.10
2023-01-15T22:51:53.220Z,21.10
2023-01-15T22:54:20.222Z,21.10
2023-01-15T22:56:47.196Z,21.00
2023-01-15T22:59:14.681Z,21.00
2023-01-15T23:01:41.834Z,21.00
2023-01-15T23:04:12.855Z,21.00
2023-01-15T23:06:39.756Z,21.00
2023-01-15T23:09:06.861Z,21.10
2023-01-15T23:11:34.209Z,21.00
2023-01-15T23:14:01.155Z,21.00
2023-01-15T23:16:28.205Z,21.00
2023-01-15T23:18:55.169Z,21.00
2023-01-15T23:21:23.263Z,21.00
2023-01-15T23:23:57.479Z,21.00
2023-01-15T23:26:25.099Z,21.00
2023-01-15T23:28:52.342Z,21.00
2023-01-15T23:31:19.927Z,21.00
2023-01-15T23:33:47.246Z,21.00
2023-01-15T23:36:14.676Z,21.00
2023-01-15T23:38:42.520Z,21.00
2023-01-15T23:41:10.414Z,21.00
2023-01-15T23:43:58.222Z,21.00
2023-01-15T23:46:37.972Z,21.00
2023-01-15T23:49:07.410Z,21.00
2023-01-15T23:51:34.785Z,21.00
2023-01-15T23:54:01.871Z,21.00
2023-01-15T23:56:29.612Z,21.00
2023-01-15T23:58:56.766Z,21.00
